Time;durP1;ratioP1;P1;durP2;ratioP2;P2;SDS_P1;SDS_P2;PMS_P1;PMS_P2;Temp;Humidity;BMP_temperature;BMP_pressure;BME280_temperature;BME280_humidity;BME280_pressure;Samples;Min_cycle;Max_cycle;Signal;HPM_P1;HPM_P2
2021/01/08 00:01:26;;;;;;;5.07;2.78;;;;;;;;;;5052113;28;20055;-73
2021/01/08 00:03:52;;;;;;;8.50;3.05;;;;;;;;;;5051280;28;20104;-72
2021/01/08 00:06:18;;;;;;;4.75;3.08;;;;;;;;;;5050844;28;20025;-73
2021/01/08 00:08:44;;;;;;;6.57;2.90;;;;;;;;;;5052483;28;20469;-73
2021/01/08 00:11:10;;;;;;;4.70;2.88;;;;;;;;;;5067234;28;20055;-72
2021/01/08 00:13:36;;;;;;;6.32;2.85;;;;;;;;;;5072262;28;20052;-73
2021/01/08 00:16:02;;;;;;;5.03;3.15;;;;;;;;;;5071142;28;20035;-73
2021/01/08 00:18:29;;;;;;;7.03;3.28;;;;;;;;;;5072362;28;20016;-73
2021/01/08 00:20:55;;;;;;;7.03;3.33;;;;;;;;;;5072452;28;20025;-73
2021/01/08 00:23:21;;;;;;;4.35;2.53;;;;;;;;;;5070590;28;20112;-73
2021/01/08 00:25:50;;;;;;;5.57;3.63;;;;;;;;;;5070942;28;20108;-73
2021/01/08 00:28:17;;;;;;;6.93;3.63;;;;;;;;;;5064436;28;20012;-73
2021/01/08 00:30:43;;;;;;;6.28;4.00;;;;;;;;;;5072657;28;20021;-73
2021/01/08 00:33:09;;;;;;;5.60;3.17;;;;;;;;;;5071764;28;20162;-73
2021/01/08 00:35:38;;;;;;;5.40;3.08;;;;;;;;;;5072473;28;20043;-73
2021/01/08 00:38:06;;;;;;;5.43;3.20;;;;;;;;;;5072046;28;20028;-72
2021/01/08 00:40:32;;;;;;;6.82;4.25;;;;;;;;;;5071997;28;20017;-73
2021/01/08 00:42:58;;;;;;;7.32;3.55;;;;;;;;;;5072177;28;20044;-73
2021/01/08 00:45:24;;;;;;;5.60;2.95;;;;;;;;;;5070599;28;20071;-73
2021/01/08 00:47:50;;;;;;;6.72;3.10;;;;;;;;;;5072124;28;20028;-73
2021/01/08 00:50:17;;;;;;;4.35;2.85;;;;;;;;;;5070500;28;20024;-72
2021/01/08 00:52:43;;;;;;;4.82;2.70;;;;;;;;;;5072455;28;20086;-72
2021/01/08 00:55:09;;;;;;;5.03;2.53;;;;;;;;;;5071565;28;20025;-73
2021/01/08 00:57:35;;;;;;;5.03;2.55;;;;;;;;;;5073498;28;20028;-74
2021/01/08 01:00:01;;;;;;;4.97;2.78;;;;;;;;;;5076432;28;20025;-74
2021/01/08 01:02:27;;;;;;;5.88;3.30;;;;;;;;;;5075571;28;20070;-74
2021/01/08 01:04:53;;;;;;;5.38;2.80;;;;;;;;;;5075826;28;20514;-74
2021/01/08 01:07:19;;;;;;;5.82;2.65;;;;;;;;;;5074335;28;20028;-73
2021/01/08 01:09:45;;;;;;;5.80;3.00;;;;;;;;;;5075553;28;20029;-72
2021/01/08 01:12:11;;;;;;;5.65;2.80;;;;;;;;;;5075591;28;20384;-74
2021/01/08 01:14:37;;;;;;;5.75;3.15;;;;;;;;;;5075768;28;20449;-74
2021/01/08 01:17:04;;;;;;;6.18;2.92;;;;;;;;;;5076012;28;20039;-74
2021/01/08 01:19:31;;;;;;;7.25;4.07;;;;;;;;;;5074179;28;20067;-74
2021/01/08 01:21:57;;;;;;;5.68;3.03;;;;;;;;;;5075677;28;20059;-74
2021/01/08 01:24:23;;;;;;;6.03;3.25;;;;;;;;;;5075330;28;20099;-74
2021/01/08 01:26:58;;;;;;;6.50;3.13;;;;;;;;;;5073999;28;20047;-74
2021/01/08 01:29:24;;;;;;;5.60;3.33;;;;;;;;;;5074027;28;20020;-74
2021/01/08 01:31:50;;;;;;;6.25;2.97;;;;;;;;;;5074191;28;20066;-74
2021/01/08 01:34:17;;;;;;;6.45;3.10;;;;;;;;;;5075508;28;20016;-72
2021/01/08 01:36:43;;;;;;;4.82;2.53;;;;;;;;;;5075387;28;20024;-73
2021/01/08 01:39:09;;;;;;;6.78;3.17;;;;;;;;;;5073672;28;20449;-72
2021/01/08 01:41:35;;;;;;;5.55;2.80;;;;;;;;;;5074943;28;20044;-73
2021/01/08 01:44:01;;;;;;;4.50;2.55;;;;;;;;;;5075228;28;20019;-73
2021/01/08 01:46:27;;;;;;;4.80;2.78;;;;;;;;;;5074950;28;20427;-73
2021/01/08 01:48:53;;;;;;;8.65;3.15;;;;;;;;;;5075519;28;20484;-73
2021/01/08 01:51:20;;;;;;;4.53;2.30;;;;;;;;;;5074889;28;20016;-72
2021/01/08 01:53:47;;;;;;;5.60;2.60;;;;;;;;;;5075042;28;20021;-74
2021/01/08 01:56:13;;;;;;;5.53;3.35;;;;;;;;;;5073550;28;20047;-74
2021/01/08 01:58:39;;;;;;;6.15;3.47;;;;;;;;;;5073817;28;20016;-73
2021/01/08 02:01:05;;;;;;;6.35;3.15;;;;;;;;;;5074960;28;20070;-74
2021/01/08 02:03:35;;;;;;;5.88;3.67;;;;;;;;;;5074351;28;20024;-74
2021/01/08 02:06:04;;;;;;;5.47;3.45;;;;;;;;;;5073452;28;20064;-73
2021/01/08 02:08:30;;;;;;;5.27;2.97;;;;;;;;;;5072885;28;20440;-73
2021/01/08 02:10:56;;;;;;;6.38;4.10;;;;;;;;;;5074871;28;20027;-74
2021/01/08 02:13:49;;;;;;;6.55;3.25;;;;;;;;;;5074452;28;20009;-74
2021/01/08 02:16:16;;;;;;;5.63;3.38;;;;;;;;;;5071745;28;20032;-73
2021/01/08 02:18:43;;;;;;;6.32;3.50;;;;;;;;;;5073267;28;20048;-74
2021/01/08 02:21:12;;;;;;;4.90;3.10;;;;;;;;;;5073289;28;20044;-74
2021/01/08 02:23:42;;;;;;;7.57;3.90;;;;;;;;;;5074247;28;20455;-74
2021/01/08 02:26:08;;;;;;;7.53;3.53;;;;;;;;;;5074434;28;20078;-74
2021/01/08 02:28:35;;;;;;;5.60;3.17;;;;;;;;;;5072764;28;20355;-74
2021/01/08 02:31:01;;;;;;;7.40;3.63;;;;;;;;;;5073070;28;20107;-74
2021/01/08 02:33:27;;;;;;;8.27;3.53;;;;;;;;;;5074156;28;20048;-74
2021/01/08 02:35:53;;;;;;;5.55;3.25;;;;;;;;;;5072959;28;20024;-74
2021/01/08 02:38:20;;;;;;;5.90;3.40;;;;;;;;;;5072692;28;20107;-74
2021/01/08 02:40:47;;;;;;;8.50;4.15;;;;;;;;;;5072617;28;20041;-74
2021/01/08 02:43:15;;;;;;;5.32;3.35;;;;;;;;;;5074010;28;20017;-74
2021/01/08 02:45:41;;;;;;;5.95;3.25;;;;;;;;;;5074226;28;20035;-74
2021/01/08 02:48:07;;;;;;;4.53;2.75;;;;;;;;;;5072704;28;20472;-74
2021/01/08 02:50:33;;;;;;;5.82;3.15;;;;;;;;;;5072498;28;20021;-74
2021/01/08 02:53:03;;;;;;;6.63;3.88;;;;;;;;;;5073866;28;20017;-74
2021/01/08 02:55:30;;;;;;;4.87;3.03;;;;;;;;;;5073959;28;20062;-74
2021/01/08 02:57:58;;;;;;;5.85;3.33;;;;;;;;;;5073912;28;20017;-74
2021/01/08 03:00:25;;;;;;;6.95;3.50;;;;;;;;;;5073567;28;20023;-74
2021/01/08 03:02:51;;;;;;;7.97;4.25;;;;;;;;;;5073725;28;20048;-74
2021/01/08 03:05:17;;;;;;;14.57;6.03;;;;;;;;;;5071736;28;20035;-73
2021/01/08 03:07:43;;;;;;;11.82;5.25;;;;;;;;;;5073872;28;20021;-73
2021/01/08 03:10:09;;;;;;;16.20;7.28;;;;;;;;;;5073603;28;20046;-74
2021/01/08 03:12:36;;;;;;;18.85;6.90;;;;;;;;;;5071982;28;20029;-73
2021/01/08 03:15:05;;;;;;;10.07;4.05;;;;;;;;;;5073492;28;20024;-72
2021/01/08 03:17:31;;;;;;;8.30;4.00;;;;;;;;;;5071898;28;20546;-73
2021/01/08 03:19:57;;;;;;;7.65;4.00;;;;;;;;;;5071435;28;20052;-73
2021/01/08 03:22:23;;;;;;;10.93;5.47;;;;;;;;;;5073117;28;20448;-73
2021/01/08 03:24:49;;;;;;;10.50;4.47;;;;;;;;;;5071921;28;20024;-73
2021/01/08 03:27:15;;;;;;;5.85;3.25;;;;;;;;;;5073188;28;20024;-74
2021/01/08 03:29:41;;;;;;;6.45;3.58;;;;;;;;;;5071997;28;20404;-74
2021/01/08 03:32:07;;;;;;;5.95;3.17;;;;;;;;;;5071960;28;20021;-74
2021/01/08 03:34:33;;;;;;;7.07;3.17;;;;;;;;;;5072927;28;20017;-72
2021/01/08 03:36:59;;;;;;;4.90;2.67;;;;;;;;;;5073086;28;20082;-73
2021/01/08 03:39:25;;;;;;;6.70;3.95;;;;;;;;;;5072701;28;20469;-73
2021/01/08 03:41:51;;;;;;;6.93;3.80;;;;;;;;;;5072716;28;20083;-73
2021/01/08 03:44:17;;;;;;;5.18;3.15;;;;;;;;;;5071421;28;20021;-73
2021/01/08 03:46:43;;;;;;;8.25;4.38;;;;;;;;;;5071549;28;20028;-73
2021/01/08 03:49:09;;;;;;;6.88;4.10;;;;;;;;;;5072856;28;20028;-73
2021/01/08 03:51:35;;;;;;;6.05;3.20;;;;;;;;;;5071341;28;20028;-73
2021/01/08 03:54:01;;;;;;;5.85;3.35;;;;;;;;;;5073074;28;20326;-72
2021/01/08 03:56:27;;;;;;;7.63;3.70;;;;;;;;;;5072262;28;20074;-73
2021/01/08 03:58:53;;;;;;;6.90;3.08;;;;;;;;;;5071448;28;20017;-72
2021/01/08 04:01:19;;;;;;;7.47;3.85;;;;;;;;;;5072458;28;20066;-73
2021/01/08 04:03:45;;;;;;;8.40;4.18;;;;;;;;;;5071359;28;20090;-73
2021/01/08 04:06:11;;;;;;;7.65;4.07;;;;;;;;;;5070885;28;20408;-73
2021/01/08 04:08:37;;;;;;;5.85;3.30;;;;;;;;;;5071017;28;20021;-73
2021/01/08 04:11:03;;;;;;;5.47;3.05;;;;;;;;;;5066497;28;20037;-73
2021/01/08 04:13:29;;;;;;;7.70;4.40;;;;;;;;;;5052000;28;20017;-73
2021/01/08 04:15:55;;;;;;;7.80;3.28;;;;;;;;;;5052477;28;20075;-73
2021/01/08 04:18:21;;;;;;;5.88;3.70;;;;;;;;;;5052224;28;20013;-73
2021/01/08 04:20:47;;;;;;;6.72;3.50;;;;;;;;;;5050919;28;20017;-73
2021/01/08 04:23:13;;;;;;;6.70;3.63;;;;;;;;;;5050660;28;20562;-73
2021/01/08 04:25:39;;;;;;;8.30;3.95;;;;;;;;;;5069825;28;20121;-72
2021/01/08 04:28:05;;;;;;;6.28;3.88;;;;;;;;;;5071109;28;20493;-73
2021/01/08 04:30:31;;;;;;;6.93;3.65;;;;;;;;;;5072082;28;20048;-73
2021/01/08 04:32:57;;;;;;;5.75;3.58;;;;;;;;;;5072355;28;20019;-73
2021/01/08 04:35:23;;;;;;;6.82;3.83;;;;;;;;;;5070821;28;20119;-73
2021/01/08 04:37:49;;;;;;;6.53;3.70;;;;;;;;;;5072020;28;20505;-73
2021/01/08 04:40:15;;;;;;;7.07;3.85;;;;;;;;;;5070709;28;20078;-73
2021/01/08 04:42:41;;;;;;;8.80;4.22;;;;;;;;;;5070733;28;20140;-72
2021/01/08 04:45:07;;;;;;;9.57;4.30;;;;;;;;;;5070539;28;20024;-72
2021/01/08 04:47:36;;;;;;;10.10;4.97;;;;;;;;;;5070347;28;20115;-72
2021/01/08 04:50:03;;;;;;;8.57;3.65;;;;;;;;;;5072163;28;20020;-73
2021/01/08 04:52:30;;;;;;;5.65;3.08;;;;;;;;;;5071980;28;20047;-72
2021/01/08 04:54:57;;;;;;;5.47;3.13;;;;;;;;;;5072067;28;20013;-72
2021/01/08 04:57:24;;;;;;;5.88;3.03;;;;;;;;;;5071545;28;20069;-72
2021/01/08 04:59:50;;;;;;;6.47;3.33;;;;;;;;;;5070695;28;20020;-72
2021/01/08 05:02:16;;;;;;;7.15;3.70;;;;;;;;;;5070679;28;20112;-73
2021/01/08 05:04:42;;;;;;;5.47;3.20;;;;;;;;;;5071737;28;20017;-73
2021/01/08 05:07:08;;;;;;;5.60;3.28;;;;;;;;;;5065804;28;20149;-73
2021/01/08 05:09:34;;;;;;;5.63;3.03;;;;;;;;;;5050352;28;20400;-73
2021/01/08 05:12:00;;;;;;;6.35;2.88;;;;;;;;;;5050547;28;20036;-73
2021/01/08 05:14:27;;;;;;;6.47;3.50;;;;;;;;;;5050289;28;20062;-73
2021/01/08 05:16:55;;;;;;;6.30;3.65;;;;;;;;;;5051904;28;20361;-74
2021/01/08 05:19:23;;;;;;;6.60;3.45;;;;;;;;;;5051829;28;20052;-74
2021/01/08 05:21:49;;;;;;;4.97;2.88;;;;;;;;;;5050600;28;20024;-74
2021/01/08 05:24:16;;;;;;;6.25;3.05;;;;;;;;;;5051577;28;20031;-74
2021/01/08 05:26:42;;;;;;;6.03;3.03;;;;;;;;;;5051572;28;20449;-74
2021/01/08 05:29:08;;;;;;;8.20;3.85;;;;;;;;;;5050447;28;20017;-74
2021/01/08 05:31:35;;;;;;;6.80;3.65;;;;;;;;;;5051282;28;20021;-74
2021/01/08 05:34:02;;;;;;;7.07;3.83;;;;;;;;;;5051786;28;20025;-74
2021/01/08 05:36:28;;;;;;;6.47;3.42;;;;;;;;;;5049842;28;20025;-74
2021/01/08 05:38:57;;;;;;;6.68;3.35;;;;;;;;;;5051624;28;20017;-74
2021/01/08 05:41:23;;;;;;;6.28;3.90;;;;;;;;;;5051318;28;20082;-74
2021/01/08 05:43:49;;;;;;;6.18;3.35;;;;;;;;;;5054581;28;20102;-74
2021/01/08 05:46:15;;;;;;;5.40;2.95;;;;;;;;;;5055187;28;20028;-74
2021/01/08 05:48:43;;;;;;;4.95;2.78;;;;;;;;;;5054400;28;20040;-74
2021/01/08 05:51:09;;;;;;;6.22;3.17;;;;;;;;;;5073951;28;20017;-74
2021/01/08 05:53:37;;;;;;;5.25;3.35;;;;;;;;;;5073639;28;20155;-74
2021/01/08 05:56:03;;;;;;;5.18;2.88;;;;;;;;;;5075083;28;20081;-74
2021/01/08 05:58:29;;;;;;;6.85;3.50;;;;;;;;;;5073466;28;20016;-74
2021/01/08 06:00:58;;;;;;;6.45;3.08;;;;;;;;;;5075090;28;20357;-74
2021/01/08 06:03:24;;;;;;;6.20;3.08;;;;;;;;;;5073647;28;20074;-74
2021/01/08 06:05:55;;;;;;;6.35;3.22;;;;;;;;;;5073521;28;20024;-74
2021/01/08 06:08:21;;;;;;;;;;;;;;;;;;5075318;28;20021;-74
2021/01/08 06:10:51;;;;;;;5.85;3.05;;;;;;;;;;5073317;28;19907;-74
2021/01/08 06:13:18;;;;;;;7.55;3.95;;;;;;;;;;5073524;28;20028;-74
2021/01/08 06:15:44;;;;;;;6.40;3.30;;;;;;;;;;5073208;28;20020;-72
2021/01/08 06:18:10;;;;;;;6.20;3.08;;;;;;;;;;5074708;28;20134;-72
2021/01/08 06:20:36;;;;;;;6.00;3.83;;;;;;;;;;5074162;28;20021;-73
2021/01/08 06:23:02;;;;;;;6.95;4.20;;;;;;;;;;5074628;28;20055;-73
2021/01/08 06:25:30;;;;;;;6.53;3.78;;;;;;;;;;5072404;28;20538;-74
2021/01/08 06:27:58;;;;;;;5.85;3.72;;;;;;;;;;5070436;28;20032;-74
2021/01/08 06:30:28;;;;;;;6.82;3.60;;;;;;;;;;5074423;28;20016;-74
2021/01/08 06:33:01;;;;;;;10.60;4.35;;;;;;;;;;5056474;28;20025;-73
2021/01/08 06:35:31;;;;;;;7.25;3.60;;;;;;;;;;5053269;28;20060;-74
2021/01/08 06:37:59;;;;;;;7.03;4.13;;;;;;;;;;5053028;28;20461;-74
2021/01/08 06:40:29;;;;;;;7.43;3.72;;;;;;;;;;5054031;28;20083;-73
2021/01/08 06:43:01;;;;;;;6.78;4.05;;;;;;;;;;5054109;28;20017;-73
2021/01/08 06:45:28;;;;;;;7.45;3.47;;;;;;;;;;5054554;28;20114;-73
2021/01/08 06:48:02;;;;;;;6.50;3.78;;;;;;;;;;5063618;28;20334;-73
2021/01/08 06:50:29;;;;;;;6.10;3.22;;;;;;;;;;5068571;28;20078;-73
2021/01/08 06:52:58;;;;;;;7.85;3.78;;;;;;;;;;5070918;28;20465;-74
2021/01/08 06:55:24;;;;;;;7.07;3.05;;;;;;;;;;5051563;28;20020;-73
2021/01/08 06:57:52;;;;;;;8.43;3.72;;;;;;;;;;5053638;28;20019;-74
2021/01/08 07:00:21;;;;;;;6.70;4.15;;;;;;;;;;5052703;28;20021;-73
2021/01/08 07:02:50;;;;;;;8.00;4.10;;;;;;;;;;5052373;28;20017;-73
2021/01/08 07:05:19;;;;;;;6.78;3.70;;;;;;;;;;5057501;28;20086;-74
2021/01/08 07:07:47;;;;;;;12.23;4.03;;;;;;;;;;5073475;28;20020;-74
2021/01/08 07:10:17;;;;;;;7.22;3.97;;;;;;;;;;5073640;28;20016;-74
2021/01/08 07:12:43;;;;;;;9.48;4.28;;;;;;;;;;5073696;28;20017;-74
2021/01/08 07:15:10;;;;;;;7.88;4.68;;;;;;;;;;5073641;28;20016;-75
2021/01/08 07:17:38;;;;;;;7.60;4.30;;;;;;;;;;5071941;28;20020;-73
2021/01/08 07:20:05;;;;;;;7.07;4.20;;;;;;;;;;5072126;28;20032;-73
2021/01/08 07:22:33;;;;;;;9.63;4.40;;;;;;;;;;5071808;28;20483;-73
2021/01/08 07:25:04;;;;;;;8.50;4.15;;;;;;;;;;5073155;28;20016;-73
2021/01/08 07:27:32;;;;;;;7.47;4.80;;;;;;;;;;5070821;28;20505;-73
2021/01/08 07:30:02;;;;;;;9.35;5.32;;;;;;;;;;5072624;28;20083;-73
2021/01/08 07:32:28;;;;;;;;;;;;;;;;;;5060363;28;20021;-73
2021/01/08 07:34:54;;;;;;;9.63;6.13;;;;;;;;;;5052048;28;20250;-73
2021/01/08 07:37:20;;;;;;;8.40;6.00;;;;;;;;;;5053183;28;20458;-73
2021/01/08 07:39:46;;;;;;;10.20;6.70;;;;;;;;;;5051504;28;20057;-73
2021/01/08 07:42:32;;;;;;;10.85;6.13;;;;;;;;;;5051509;28;20041;-73
2021/01/08 07:44:58;;;;;;;8.43;5.20;;;;;;;;;;5051664;28;20032;-73
2021/01/08 07:47:24;;;;;;;9.85;5.50;;;;;;;;;;5051712;28;20020;-74
2021/01/08 07:50:10;;;;;;;10.20;6.05;;;;;;;;;;5051315;28;20036;-74
2021/01/08 07:52:43;;;;;;;12.50;9.32;;;;;;;;;;5052650;28;20017;-74
2021/01/08 07:55:10;;;;;;;12.90;8.15;;;;;;;;;;5053067;28;20027;-74
2021/01/08 07:58:03;;;;;;;13.18;9.07;;;;;;;;;;5051307;28;20017;-74
2021/01/08 08:00:31;;;;;;;10.57;6.07;;;;;;;;;;5050187;28;20114;-74
2021/01/08 08:02:57;;;;;;;11.38;6.03;;;;;;;;;;5068898;28;20024;-74
2021/01/08 08:05:24;;;;;;;10.88;6.30;;;;;;;;;;5072061;28;20035;-73
2021/01/08 08:07:53;;;;;;;10.10;5.53;;;;;;;;;;5071053;28;20050;-74
2021/01/08 08:10:23;;;;;;;11.15;5.50;;;;;;;;;;5071199;28;20016;-73
2021/01/08 08:12:49;;;;;;;8.02;4.85;;;;;;;;;;5072248;28;20020;-74
2021/01/08 08:15:16;;;;;;;9.57;6.07;;;;;;;;;;5072574;28;20055;-74
2021/01/08 08:17:44;;;;;;;8.07;5.18;;;;;;;;;;5072247;28;20078;-74
2021/01/08 08:20:19;;;;;;;8.73;5.43;;;;;;;;;;5072534;28;20082;-74
2021/01/08 08:22:45;;;;;;;8.70;5.60;;;;;;;;;;5072229;28;20031;-74
2021/01/08 08:25:21;;;;;;;10.77;8.13;;;;;;;;;;5072385;28;20024;-74
2021/01/08 08:27:52;;;;;;;9.15;6.72;;;;;;;;;;5071889;28;20017;-72
2021/01/08 08:30:18;;;;;;;11.25;7.47;;;;;;;;;;5072107;28;20365;-74
2021/01/08 08:32:44;;;;;;;9.18;6.47;;;;;;;;;;5071948;28;20342;-73
2021/01/08 08:35:10;;;;;;;9.25;5.70;;;;;;;;;;5072313;28;20024;-73
2021/01/08 08:37:45;;;;;;;8.85;5.90;;;;;;;;;;5072013;28;20020;-73
2021/01/08 08:40:12;;;;;;;8.48;4.90;;;;;;;;;;5070897;28;20017;-74
2021/01/08 08:42:38;;;;;;;8.75;4.85;;;;;;;;;;5072187;28;20036;-74
2021/01/08 08:45:04;;;;;;;9.02;5.43;;;;;;;;;;5070696;28;20054;-73
2021/01/08 08:47:30;;;;;;;8.32;5.47;;;;;;;;;;5072078;28;20032;-73
2021/01/08 08:49:56;;;;;;;8.35;4.75;;;;;;;;;;5072193;28;20353;-74
2021/01/08 08:52:28;;;;;;;7.75;4.60;;;;;;;;;;5072092;28;20020;-74
2021/01/08 08:54:54;;;;;;;7.80;4.57;;;;;;;;;;5072001;28;20020;-74
2021/01/08 08:57:21;;;;;;;16.35;10.30;;;;;;;;;;5072030;28;20566;-74
2021/01/08 08:59:47;;;;;;;11.25;6.30;;;;;;;;;;5071911;28;20027;-74
2021/01/08 09:02:16;;;;;;;11.35;5.60;;;;;;;;;;5072268;28;20040;-74
2021/01/08 09:04:52;;;;;;;8.60;5.50;;;;;;;;;;5072126;28;20024;-74
2021/01/08 09:07:25;;;;;;;8.27;5.18;;;;;;;;;;5072693;28;20085;-74
2021/01/08 09:09:53;;;;;;;9.70;4.82;;;;;;;;;;5072177;28;20074;-74
2021/01/08 09:12:25;;;;;;;10.07;6.90;;;;;;;;;;5072428;28;20020;-74
2021/01/08 09:14:53;;;;;;;8.98;5.28;;;;;;;;;;5070958;28;20031;-74
2021/01/08 09:17:22;;;;;;;9.43;5.78;;;;;;;;;;5072772;28;20487;-74
2021/01/08 09:19:53;;;;;;;8.00;5.18;;;;;;;;;;5076439;28;20026;-74
2021/01/08 09:22:19;;;;;;;8.05;4.88;;;;;;;;;;5076286;28;20476;-74
2021/01/08 09:24:47;;;;;;;8.55;4.97;;;;;;;;;;5074987;28;20016;-74
2021/01/08 09:27:14;;;;;;;7.00;4.50;;;;;;;;;;5075912;28;20025;-74
2021/01/08 09:29:40;;;;;;;6.55;3.70;;;;;;;;;;5074657;28;20025;-72
2021/01/08 09:32:07;;;;;;;7.35;4.53;;;;;;;;;;5076182;28;20044;-73
2021/01/08 09:34:33;;;;;;;8.23;4.38;;;;;;;;;;5076250;28;20043;-73
2021/01/08 09:37:00;;;;;;;6.43;3.00;;;;;;;;;;5075626;28;20021;-73
2021/01/08 09:39:29;;;;;;;6.82;3.78;;;;;;;;;;5075636;28;20012;-74
2021/01/08 09:41:57;;;;;;;4.05;2.28;;;;;;;;;;5075459;28;20047;-74
2021/01/08 09:44:30;;;;;;;4.43;1.70;;;;;;;;;;5074356;28;20484;-74
2021/01/08 09:46:58;;;;;;;6.85;2.63;;;;;;;;;;5074132;28;20468;-74
2021/01/08 09:49:27;;;;;;;5.07;2.60;;;;;;;;;;5074333;28;20063;-73
2021/01/08 09:52:02;;;;;;;4.05;1.90;;;;;;;;;;5074851;28;20384;-73
2021/01/08 09:54:41;;;;;;;4.82;2.60;;;;;;;;;;5075135;28;20031;-75
2021/01/08 09:57:07;;;;;;;7.47;2.92;;;;;;;;;;5075028;28;20023;-72
2021/01/08 09:59:33;;;;;;;7.93;3.70;;;;;;;;;;5074958;28;20016;-72
2021/01/08 10:02:09;;;;;;;4.95;1.27;;;;;;;;;;5075469;28;20021;-72
2021/01/08 10:04:35;;;;;;;8.32;4.22;;;;;;;;;;5075076;28;20013;-73
2021/01/08 10:07:03;;;;;;;4.55;2.55;;;;;;;;;;5074724;28;20032;-73
2021/01/08 10:09:48;;;;;;;7.10;3.88;;;;;;;;;;5074746;28;20040;-73
2021/01/08 10:12:15;;;;;;;11.27;4.28;;;;;;;;;;5074812;28;20052;-72
2021/01/08 10:14:41;;;;;;;7.00;2.97;;;;;;;;;;5074761;28;20013;-74
2021/01/08 10:17:07;;;;;;;7.40;2.75;;;;;;;;;;5074353;28;20020;-72
2021/01/08 10:19:33;;;;;;;4.18;1.95;;;;;;;;;;5073275;28;20472;-73
2021/01/08 10:22:04;;;;;;;5.88;2.55;;;;;;;;;;5074260;28;20047;-73
2021/01/08 10:24:30;;;;;;;7.45;2.08;;;;;;;;;;5074625;28;20467;-73
2021/01/08 10:26:56;;;;;;;3.75;2.00;;;;;;;;;;5074499;28;20499;-74
2021/01/08 10:29:35;;;;;;;4.30;2.10;;;;;;;;;;5072901;28;20031;-73
2021/01/08 10:32:05;;;;;;;4.03;1.87;;;;;;;;;;5074284;28;20077;-73
2021/01/08 10:34:35;;;;;;;2.42;1.52;;;;;;;;;;5074197;28;20069;-72
2021/01/08 10:37:01;;;;;;;3.17;1.58;;;;;;;;;;5073972;28;20025;-73
2021/01/08 10:39:27;;;;;;;3.25;1.77;;;;;;;;;;5073781;28;20024;-73
2021/01/08 10:41:53;;;;;;;4.40;1.90;;;;;;;;;;5072629;28;20542;-74
2021/01/08 10:44:19;;;;;;;3.80;1.85;;;;;;;;;;5074352;28;20025;-73
2021/01/08 10:46:45;;;;;;;3.83;1.80;;;;;;;;;;5073596;28;20028;-73
2021/01/08 10:49:11;;;;;;;5.13;2.15;;;;;;;;;;5074155;28;20453;-73
2021/01/08 10:51:37;;;;;;;4.70;2.00;;;;;;;;;;5072894;28;20024;-74
2021/01/08 10:54:03;;;;;;;3.60;1.95;;;;;;;;;;5073915;28;20024;-74
2021/01/08 10:56:30;;;;;;;5.65;3.03;;;;;;;;;;5072765;28;20048;-74
2021/01/08 10:58:59;;;;;;;4.30;2.25;;;;;;;;;;5073900;28;20386;-74
2021/01/08 11:01:25;;;;;;;3.03;1.70;;;;;;;;;;5072423;28;20121;-74
2021/01/08 11:03:51;;;;;;;4.40;2.20;;;;;;;;;;5073304;28;20028;-74
2021/01/08 11:06:18;;;;;;;4.55;2.40;;;;;;;;;;5073521;28;20024;-74
2021/01/08 11:08:44;;;;;;;6.25;3.67;;;;;;;;;;5071979;28;20487;-75
2021/01/08 11:11:10;;;;;;;4.07;1.85;;;;;;;;;;5072166;28;20028;-74
2021/01/08 11:13:36;;;;;;;5.53;2.00;;;;;;;;;;5072210;28;20056;-74
2021/01/08 11:16:02;;;;;;;8.00;3.28;;;;;;;;;;5073441;28;20020;-74
2021/01/08 11:18:28;;;;;;;4.57;2.10;;;;;;;;;;5074069;28;20515;-74
2021/01/08 11:20:54;;;;;;;4.55;1.80;;;;;;;;;;5073617;28;20012;-75
2021/01/08 11:23:21;;;;;;;4.30;2.00;;;;;;;;;;5073931;28;20013;-74
2021/01/08 11:25:47;;;;;;;4.25;2.47;;;;;;;;;;5073213;28;20024;-74
2021/01/08 11:28:13;;;;;;;3.95;2.28;;;;;;;;;;5072443;28;20021;-75
2021/01/08 11:30:39;;;;;;;3.28;1.65;;;;;;;;;;5073609;28;20025;-74
2021/01/08 11:33:05;;;;;;;3.85;1.55;;;;;;;;;;5073104;28;20021;-75
2021/01/08 11:35:31;;;;;;;3.90;2.35;;;;;;;;;;5071909;28;20051;-75
2021/01/08 11:37:57;;;;;;;4.60;2.58;;;;;;;;;;5071585;28;20407;-73
2021/01/08 11:40:23;;;;;;;3.00;1.38;;;;;;;;;;5072603;28;20039;-75
2021/01/08 11:42:49;;;;;;;4.22;1.80;;;;;;;;;;5071374;28;20016;-74
2021/01/08 11:45:15;;;;;;;3.75;1.80;;;;;;;;;;5072943;28;20050;-74
2021/01/08 11:47:41;;;;;;;3.50;1.77;;;;;;;;;;5072914;28;20479;-74
2021/01/08 11:50:07;;;;;;;4.28;1.67;;;;;;;;;;5072637;28;20326;-75
2021/01/08 11:52:34;;;;;;;3.58;1.90;;;;;;;;;;5073262;28;20024;-75
2021/01/08 11:55:00;;;;;;;3.08;1.70;;;;;;;;;;5072582;28;20016;-74
2021/01/08 11:57:26;;;;;;;3.85;1.60;;;;;;;;;;5072885;28;20024;-75
2021/01/08 11:59:52;;;;;;;1.42;0.60;;;;;;;;;;5072681;28;20395;-75
2021/01/08 12:02:18;;;;;;;3.72;1.90;;;;;;;;;;5072566;28;20074;-74
2021/01/08 12:04:44;;;;;;;3.83;2.05;;;;;;;;;;5072702;28;20020;-75
2021/01/08 12:07:10;;;;;;;4.63;2.05;;;;;;;;;;5072565;28;20017;-74
2021/01/08 12:09:36;;;;;;;4.07;2.40;;;;;;;;;;5071300;28;20024;-75
2021/01/08 12:12:06;;;;;;;3.55;1.77;;;;;;;;;;5072182;28;20028;-75
2021/01/08 12:14:33;;;;;;;3.78;1.85;;;;;;;;;;5072512;28;20016;-75
2021/01/08 12:17:08;;;;;;;4.88;2.42;;;;;;;;;;5070778;28;20074;-74
2021/01/08 12:19:35;;;;;;;7.57;2.53;;;;;;;;;;5070975;28;20124;-74
2021/01/08 12:22:01;;;;;;;2.28;1.05;;;;;;;;;;5070550;28;20020;-76
2021/01/08 12:24:28;;;;;;;7.38;4.22;;;;;;;;;;5072508;28;20017;-74
2021/01/08 12:26:54;;;;;;;3.78;2.15;;;;;;;;;;5070767;28;20025;-74
2021/01/08 12:29:21;;;;;;;4.03;2.00;;;;;;;;;;5070865;28;20513;-74
2021/01/08 12:31:47;;;;;;;4.68;2.30;;;;;;;;;;5072207;28;20021;-74
2021/01/08 12:34:13;;;;;;;3.05;1.42;;;;;;;;;;5071973;28;20069;-74
2021/01/08 12:36:39;;;;;;;5.00;2.05;;;;;;;;;;5072486;28;20020;-75
2021/01/08 12:39:05;;;;;;;3.40;1.58;;;;;;;;;;5071946;28;20042;-74
2021/01/08 12:41:32;;;;;;;6.38;1.70;;;;;;;;;;5072049;28;20040;-74
2021/01/08 12:43:58;;;;;;;3.60;1.67;;;;;;;;;;5071984;28;20028;-74
2021/01/08 12:46:24;;;;;;;3.20;1.65;;;;;;;;;;5070993;28;20123;-74
2021/01/08 12:48:50;;;;;;;4.75;2.47;;;;;;;;;;5071332;28;20067;-74
2021/01/08 12:51:16;;;;;;;3.13;1.67;;;;;;;;;;5072189;28;20024;-75
2021/01/08 12:53:43;;;;;;;3.50;1.80;;;;;;;;;;5073872;28;20020;-74
2021/01/08 12:56:09;;;;;;;2.80;1.55;;;;;;;;;;5074853;28;20024;-75
2021/01/08 12:58:35;;;;;;;6.55;3.83;;;;;;;;;;5076103;28;20043;-75
2021/01/08 13:01:01;;;;;;;5.72;3.00;;;;;;;;;;5075806;28;20039;-75
2021/01/08 13:03:27;;;;;;;18.85;12.65;;;;;;;;;;5076066;28;20013;-75
2021/01/08 13:05:53;;;;;;;7.90;4.45;;;;;;;;;;5074433;28;20032;-75
2021/01/08 13:08:19;;;;;;;3.53;1.65;;;;;;;;;;5075661;28;20465;-75
2021/01/08 13:10:47;;;;;;;3.55;2.30;;;;;;;;;;5076203;28;20333;-75
2021/01/08 13:13:13;;;;;;;4.05;1.48;;;;;;;;;;5075725;28;20024;-75
2021/01/08 13:15:39;;;;;;;3.33;1.73;;;;;;;;;;5076234;28;20020;-75
2021/01/08 13:18:05;;;;;;;3.40;1.90;;;;;;;;;;5075652;28;20031;-75
2021/01/08 13:20:31;;;;;;;2.67;1.60;;;;;;;;;;5075781;28;20009;-75
2021/01/08 13:22:58;;;;;;;2.83;2.00;;;;;;;;;;5074179;28;20472;-75
2021/01/08 13:25:24;;;;;;;2.83;1.80;;;;;;;;;;5074264;28;20069;-75
2021/01/08 13:27:51;;;;;;;3.53;2.10;;;;;;;;;;5073984;28;20033;-75
2021/01/08 13:30:17;;;;;;;2.95;1.63;;;;;;;;;;5074418;28;20352;-75
2021/01/08 13:32:43;;;;;;;2.30;1.40;;;;;;;;;;5074259;28;20173;-76
2021/01/08 13:35:10;;;;;;;1.60;0.80;;;;;;;;;;5073918;28;20357;-75
2021/01/08 13:37:37;;;;;;;2.50;1.30;;;;;;;;;;5074060;28;20028;-75
2021/01/08 13:40:03;;;;;;;3.45;1.70;;;;;;;;;;5075006;28;20040;-75
2021/01/08 13:42:30;;;;;;;2.03;1.05;;;;;;;;;;5075052;28;20365;-76
2021/01/08 13:44:56;;;;;;;4.90;2.85;;;;;;;;;;5073768;28;20372;-75
2021/01/08 13:47:27;;;;;;;2.80;1.75;;;;;;;;;;5075295;28;20032;-75
2021/01/08 13:49:53;;;;;;;5.28;3.10;;;;;;;;;;5074750;28;20582;-75
2021/01/08 13:52:19;;;;;;;6.15;3.25;;;;;;;;;;5075215;28;20017;-76
2021/01/08 13:54:45;;;;;;;5.70;2.78;;;;;;;;;;5074921;28;20067;-75
2021/01/08 13:57:13;;;;;;;5.65;2.83;;;;;;;;;;5073590;28;20107;-75
2021/01/08 13:59:39;;;;;;;4.80;2.92;;;;;;;;;;5075030;28;20440;-75
2021/01/08 14:02:05;;;;;;;7.05;3.47;;;;;;;;;;5074602;28;20096;-75
2021/01/08 14:04:31;;;;;;;5.38;3.30;;;;;;;;;;5074423;28;20048;-75
2021/01/08 14:06:57;;;;;;;5.35;3.30;;;;;;;;;;5074620;28;20058;-75
2021/01/08 14:09:24;;;;;;;4.00;2.35;;;;;;;;;;5074939;28;20342;-74
2021/01/08 14:11:50;;;;;;;7.78;3.38;;;;;;;;;;5073840;28;20075;-75
2021/01/08 14:14:16;;;;;;;7.35;2.80;;;;;;;;;;5073279;28;20021;-75
2021/01/08 14:16:42;;;;;;;6.97;3.80;;;;;;;;;;5074723;28;20025;-75
2021/01/08 14:19:08;;;;;;;7.97;3.55;;;;;;;;;;5074467;28;20368;-75
2021/01/08 14:21:35;;;;;;;3.95;2.33;;;;;;;;;;5073288;28;20013;-75
2021/01/08 14:24:02;;;;;;;3.53;2.20;;;;;;;;;;5074116;28;20537;-75
2021/01/08 14:26:28;;;;;;;4.53;2.85;;;;;;;;;;5074401;28;20115;-75
2021/01/08 14:28:54;;;;;;;4.70;2.30;;;;;;;;;;5074584;28;20020;-74
2021/01/08 14:31:39;;;;;;;3.72;2.10;;;;;;;;;;5074559;28;20089;-75
2021/01/08 14:34:09;;;;;;;3.67;1.80;;;;;;;;;;5072934;28;20360;-75
2021/01/08 14:36:36;;;;;;;4.38;1.88;;;;;;;;;;5074482;28;20052;-75
2021/01/08 14:39:02;;;;;;;2.63;1.35;;;;;;;;;;5073932;28;20024;-76
2021/01/08 14:41:28;;;;;;;2.97;1.80;;;;;;;;;;5072829;28;20051;-75
2021/01/08 14:43:55;;;;;;;19.48;7.90;;;;;;;;;;5072904;28;20013;-76